Time;durP1;ratioP1;P1;durP2;ratioP2;P2;SDS_P1;SDS_P2;PMS_P1;PMS_P2;Temp;Humidity;BMP_temperature;BMP_pressure;BME280_temperature;BME280_humidity;BME280_pressure;Samples;Min_cycle;Max_cycle;Signal;HPM_P1;HPM_P2
2020/12/03 00:01:15;;;;;;;22.23;9.68;;;5.80;70.10;;;;;;2341265;53;21039;-73
2020/12/03 00:03:55;;;;;;;17.65;8.73;;;5.80;70.10;;;;;;2586864;53;21000;-73
2020/12/03 00:06:45;;;;;;;17.10;8.85;;;5.80;70.10;;;;;;2341286;53;21008;-73
2020/12/03 00:09:15;;;;;;;23.67;10.40;;;5.80;70.10;;;;;;2586661;53;21088;-73
2020/12/03 00:11:44;;;;;;;23.60;10.00;;;5.80;70.30;;;;;;2586910;53;21076;-73
2020/12/03 00:14:10;;;;;;;21.00;10.48;;;5.80;70.40;;;;;;2587847;53;21048;-73
2020/12/03 00:16:36;;;;;;;23.20;11.18;;;5.80;70.40;;;;;;2578347;53;21026;-73
2020/12/03 00:19:04;;;;;;;25.73;10.93;;;5.80;70.30;;;;;;2340197;53;20984;-73
2020/12/03 00:21:38;;;;;;;24.05;11.25;;;5.80;70.30;;;;;;2339614;53;20964;-73
2020/12/03 00:24:09;;;;;;;24.35;11.75;;;5.80;70.40;;;;;;2340492;53;21413;-73
2020/12/03 00:26:35;;;;;;;22.55;11.07;;;5.80;70.40;;;;;;2340504;53;21499;-73
2020/12/03 00:29:03;;;;;;;23.00;10.73;;;5.80;70.40;;;;;;2332742;53;20968;-73
2020/12/03 00:31:31;;;;;;;21.92;10.32;;;5.60;70.10;;;;;;2584320;53;20939;-73
2020/12/03 00:33:57;;;;;;;19.83;9.85;;;5.80;70.30;;;;;;2557417;53;21509;-73
2020/12/03 00:36:23;;;;;;;20.15;9.60;;;5.80;70.20;;;;;;2583680;53;21496;-73
2020/12/03 00:38:51;;;;;;;22.40;10.18;;;5.90;70.40;;;;;;2334926;53;20948;-73
2020/12/03 00:41:38;;;;;;;23.80;10.73;;;5.90;70.30;;;;;;2342077;53;20944;-73
2020/12/03 00:44:05;;;;;;;24.25;10.45;;;5.90;70.20;;;;;;2578849;53;21194;-73
2020/12/03 00:50:32;;;;;;;21.33;10.27;;;5.90;70.20;;;;;;2553356;53;21048;-73
2020/12/03 00:53:10;;;;;;;25.05;11.25;;;5.90;70.10;;;;;;2344262;53;20976;-73
2020/12/03 00:55:37;;;;;;;26.92;11.73;;;5.90;70.10;;;;;;2349382;53;20932;-73
2020/12/03 00:58:04;;;;;;;25.00;11.85;;;5.90;70.20;;;;;;2559742;53;20956;-73
2020/12/03 01:00:30;;;;;;;25.05;11.30;;;5.90;70.20;;;;;;2344555;53;20925;-73
2020/12/03 01:02:57;;;;;;;26.80;12.23;;;5.90;70.20;;;;;;2580898;53;20960;-73
2020/12/03 01:05:23;;;;;;;27.92;13.48;;;5.90;70.20;;;;;;2334294;53;21024;-73
2020/12/03 01:07:50;;;;;;;38.38;17.10;;;5.90;70.20;;;;;;2340494;53;21036;-73
2020/12/03 01:10:22;;;;;;;25.65;13.02;;;5.90;70.10;;;;;;2340791;53;21529;-73
2020/12/03 01:12:48;;;;;;;25.08;11.95;;;5.90;70.10;;;;;;2344761;53;20996;-73
2020/12/03 01:15:16;;;;;;;23.65;11.12;;;5.90;70.10;;;;;;2579445;53;21524;-72
2020/12/03 01:17:42;;;;;;;23.48;11.68;;;5.90;70.10;;;;;;2342618;53;20945;-73
2020/12/03 01:20:11;;;;;;;23.73;11.30;;;5.90;70.10;;;;;;2584840;53;20925;-73
2020/12/03 01:22:38;;;;;;;23.08;10.63;;;5.90;70.10;;;;;;2339420;53;20921;-73
2020/12/03 01:25:05;;;;;;;23.50;10.80;;;5.90;70.10;;;;;;2321241;54;20952;-73
2020/12/03 01:27:32;;;;;;;21.58;10.65;;;5.90;70.10;;;;;;2339159;53;20968;-73
2020/12/03 01:29:58;;;;;;;27.70;12.45;;;5.90;70.00;;;;;;2339888;53;20992;-73
2020/12/03 01:32:24;;;;;;;25.30;12.07;;;5.90;70.00;;;;;;2342849;53;20972;-73
2020/12/03 01:34:51;;;;;;;25.20;12.30;;;5.90;69.90;;;;;;2336976;53;21405;-73
2020/12/03 01:37:29;;;;;;;25.98;11.85;;;5.90;69.90;;;;;;2572238;53;20965;-73
2020/12/03 01:39:55;;;;;;;24.33;11.60;;;5.90;69.80;;;;;;2341150;53;22113;-73
2020/12/03 01:42:23;;;;;;;26.80;11.43;;;5.80;69.80;;;;;;2332259;53;20972;-73
2020/12/03 01:44:51;;;;;;;21.90;11.00;;;5.90;70.00;;;;;;2334173;53;20993;-73
2020/12/03 01:47:24;;;;;;;25.00;10.95;;;5.80;69.90;;;;;;2338571;53;21012;-73
2020/12/03 01:49:50;;;;;;;22.55;10.55;;;5.90;70.00;;;;;;2336866;53;21012;-73
2020/12/03 01:52:19;;;;;;;25.73;11.88;;;5.80;69.90;;;;;;2341573;53;20941;-73
2020/12/03 01:54:45;;;;;;;26.58;12.80;;;5.90;70.00;;;;;;2341410;53;20930;-73
2020/12/03 01:57:42;;;;;;;29.60;13.48;;;5.80;70.00;;;;;;2583857;53;21950;-73
2020/12/03 02:00:14;;;;;;;25.15;11.90;;;5.80;69.80;;;;;;2347367;53;21000;-73
2020/12/03 02:02:47;;;;;;;24.67;11.55;;;5.90;69.80;;;;;;2323733;54;20960;-73
2020/12/03 02:05:24;;;;;;;26.27;11.98;;;5.90;69.80;;;;;;2590108;53;20988;-72
2020/12/03 02:07:51;;;;;;;22.92;10.18;;;5.80;69.60;;;;;;2343014;53;20948;-73
2020/12/03 02:10:19;;;;;;;23.52;11.15;;;5.80;69.70;;;;;;2343197;53;21020;-73
2020/12/03 02:12:46;;;;;;;22.70;10.77;;;5.80;69.80;;;;;;2587720;53;20948;-73
2020/12/03 02:15:13;;;;;;;24.95;10.63;;;5.80;69.80;;;;;;2343592;53;20924;-73
2020/12/03 02:17:39;;;;;;;21.42;10.30;;;5.80;69.80;;;;;;2590069;53;21473;-73
2020/12/03 02:20:19;;;;;;;24.02;10.63;;;5.80;69.80;;;;;;2342752;53;20936;-73
2020/12/03 02:22:45;;;;;;;22.58;10.40;;;5.80;69.80;;;;;;2343528;53;20976;-73
2020/12/03 02:25:11;;;;;;;21.55;9.02;;;5.80;69.90;;;;;;2343114;53;21425;-73
2020/12/03 02:27:38;;;;;;;23.83;10.73;;;5.80;69.90;;;;;;2341443;53;20917;-74
2020/12/03 02:30:05;;;;;;;25.83;11.70;;;5.80;70.00;;;;;;2344483;53;20988;-74
2020/12/03 02:32:32;;;;;;;22.35;11.23;;;5.80;69.90;;;;;;2587878;53;21014;-74
2020/12/03 02:35:02;;;;;;;21.67;9.45;;;5.80;69.90;;;;;;2341693;53;20985;-73
2020/12/03 02:37:31;;;;;;;22.77;11.00;;;5.80;69.90;;;;;;2342468;53;20932;-74
2020/12/03 02:39:59;;;;;;;22.45;10.77;;;5.80;69.90;;;;;;2588123;53;21429;-73
2020/12/03 02:42:25;;;;;;;24.15;11.18;;;5.80;69.90;;;;;;2587336;53;21056;-74
2020/12/03 02:44:52;;;;;;;22.20;10.73;;;5.80;70.00;;;;;;2334419;53;21108;-74
2020/12/03 02:47:21;;;;;;;20.05;9.95;;;5.80;70.70;;;;;;2342005;53;21075;-74
2020/12/03 02:49:48;;;;;;;21.90;9.90;;;5.80;70.10;;;;;;2346554;53;20973;-74
2020/12/03 02:52:20;;;;;;;22.30;9.90;;;5.80;70.10;;;;;;2316601;54;21013;-73
2020/12/03 02:54:47;;;;;;;17.37;8.30;;;5.80;70.10;;;;;;2547849;53;20936;-73
2020/12/03 02:57:13;;;;;;;21.52;10.40;;;5.80;70.20;;;;;;2589688;53;20924;-73
2020/12/03 02:59:40;;;;;;;20.08;10.05;;;5.60;70.70;;;;;;2343318;53;20931;-73
2020/12/03 03:02:06;;;;;;;24.65;10.85;;;5.80;70.20;;;;;;2346126;53;21057;-73
2020/12/03 03:04:33;;;;;;;22.05;10.35;;;5.80;70.20;;;;;;2343318;53;21008;-73
2020/12/03 03:07:00;;;;;;;23.98;10.43;;;5.90;70.20;;;;;;2346478;53;20940;-73
2020/12/03 03:09:27;;;;;;;18.92;9.73;;;5.90;70.20;;;;;;2343474;53;20917;-73
2020/12/03 03:11:54;;;;;;;23.62;11.12;;;5.90;70.10;;;;;;2342728;53;20955;-72
2020/12/03 03:14:21;;;;;;;20.17;9.35;;;5.90;70.10;;;;;;2346340;53;20980;-73
2020/12/03 03:16:48;;;;;;;20.75;9.50;;;5.90;70.00;;;;;;2346588;53;21059;-73
2020/12/03 03:19:18;;;;;;;20.25;9.55;;;5.90;70.00;;;;;;2342046;53;20940;-73
2020/12/03 03:21:46;;;;;;;19.35;9.45;;;5.90;70.00;;;;;;2342678;53;21031;-73
2020/12/03 03:24:12;;;;;;;20.75;9.38;;;5.90;70.00;;;;;;2589556;53;21072;-73
2020/12/03 03:26:39;;;;;;;19.08;8.35;;;5.90;70.00;;;;;;2590319;53;21028;-73
2020/12/03 03:29:05;;;;;;;17.48;9.50;;;5.90;70.10;;;;;;2341570;53;20960;-72
2020/12/03 03:31:32;;;;;;;19.90;9.77;;;5.90;70.10;;;;;;2589716;53;21832;-73
2020/12/03 03:33:58;;;;;;;19.87;9.57;;;5.90;70.00;;;;;;2590376;53;21047;-73
2020/12/03 03:36:25;;;;;;;19.23;8.48;;;5.90;70.00;;;;;;2588909;53;22118;-74
2020/12/03 03:38:51;;;;;;;21.27;10.10;;;5.90;70.00;;;;;;2341927;53;20952;-73
2020/12/03 03:41:18;;;;;;;19.90;10.02;;;5.90;69.90;;;;;;2342516;53;21806;-74
2020/12/03 03:43:48;;;;;;;18.15;9.40;;;5.90;69.90;;;;;;2343425;53;21794;-74
2020/12/03 03:46:15;;;;;;;25.40;10.95;;;5.90;69.90;;;;;;2347401;53;20987;-73
2020/12/03 03:48:41;;;;;;;20.05;10.10;;;5.90;69.90;;;;;;2351483;53;21120;-74
2020/12/03 03:51:08;;;;;;;22.10;11.18;;;5.90;69.90;;;;;;2337392;53;20951;-73
2020/12/03 03:53:34;;;;;;;24.58;11.48;;;5.90;69.80;;;;;;2351585;53;20983;-73
2020/12/03 03:56:04;;;;;;;25.33;12.77;;;5.90;69.80;;;;;;2589504;53;20933;-74
2020/12/03 03:58:30;;;;;;;26.27;12.73;;;5.90;69.70;;;;;;2347241;53;20960;-73
2020/12/03 04:00:58;;;;;;;24.85;12.57;;;5.90;69.70;;;;;;2589733;53;20943;-73
2020/12/03 04:03:24;;;;;;;23.42;11.75;;;5.90;69.70;;;;;;2352223;53;21026;-73
2020/12/03 04:05:53;;;;;;;23.55;12.10;;;5.80;69.70;;;;;;2589187;53;21039;-73
2020/12/03 04:08:20;;;;;;;25.15;12.32;;;5.80;69.80;;;;;;2589381;53;21047;-73
2020/12/03 04:10:49;;;;;;;25.52;12.32;;;5.80;69.80;;;;;;2588217;52;20992;-74
2020/12/03 04:13:16;;;;;;;20.33;10.68;;;5.80;69.80;;;;;;2589256;53;21000;-74
2020/12/03 04:15:42;;;;;;;23.45;12.48;;;5.80;69.90;;;;;;2589150;53;21490;-73
2020/12/03 04:18:08;;;;;;;22.77;11.70;;;5.80;69.90;;;;;;2346368;53;21398;-73
2020/12/03 04:20:35;;;;;;;21.30;10.73;;;5.80;70.00;;;;;;2589179;52;22100;-74
2020/12/03 04:23:02;;;;;;;21.20;10.25;;;5.80;70.10;;;;;;2342363;53;20996;-73
2020/12/03 04:25:28;;;;;;;20.58;10.13;;;5.80;70.10;;;;;;2589465;53;20973;-73
2020/12/03 04:27:58;;;;;;;19.98;9.30;;;5.80;70.10;;;;;;2589734;53;21056;-73
2020/12/03 04:30:24;;;;;;;25.40;12.52;;;5.80;70.20;;;;;;2347309;53;21877;-73
2020/12/03 04:32:51;;;;;;;21.77;10.93;;;5.80;70.10;;;;;;2343076;53;20936;-73
2020/12/03 04:35:17;;;;;;;21.67;11.12;;;5.80;70.10;;;;;;2350987;53;20963;-73
2020/12/03 04:37:46;;;;;;;24.52;11.60;;;5.80;70.10;;;;;;2336909;53;20940;-73
2020/12/03 04:40:25;;;;;;;26.23;13.13;;;5.80;70.10;;;;;;2588273;53;20992;-74
2020/12/03 04:42:51;;;;;;;21.37;11.32;;;5.90;70.20;;;;;;2345918;53;21556;-73
2020/12/03 04:45:43;;;;;;;24.20;12.20;;;5.90;70.30;;;;;;2590696;53;21056;-73
2020/12/03 04:48:24;;;;;;;21.87;11.38;;;5.90;70.00;;;;;;2342249;53;20936;-73
2020/12/03 04:51:49;;;;;;;28.75;13.65;;;5.90;70.20;;;;;;2589258;53;20991;-73
2020/12/03 04:54:24;;;;;;;27.83;13.75;;;5.90;69.90;;;;;;2343019;53;21437;-73
2020/12/03 04:57:12;;;;;;;28.33;13.57;;;5.90;70.00;;;;;;2347266;53;20978;-73
2020/12/03 05:03:28;;;;;;;24.67;12.27;;;5.90;70.10;;;;;;2346910;53;20976;-73
2020/12/03 05:07:28;;;;;;;24.63;11.27;;;5.90;69.40;;;;;;2346990;53;20949;-73
2020/12/03 05:10:15;;;;;;;26.10;12.13;;;5.90;69.50;;;;;;2343365;53;20960;-73
2020/12/03 05:12:42;;;;;;;22.70;11.65;;;5.90;70.10;;;;;;2590195;53;21795;-73
2020/12/03 05:15:58;;;;;;;23.90;12.32;;;5.90;70.20;;;;;;2341404;53;20932;-73
2020/12/03 05:18:55;;;;;;;28.15;12.85;;;5.90;69.70;;;;;;2589634;53;20976;-73
2020/12/03 05:21:28;;;;;;;24.40;12.55;;;5.90;70.10;;;;;;2345876;53;20985;-73
2020/12/03 05:24:15;;;;;;;26.17;12.65;;;5.90;70.10;;;;;;2342516;53;21036;-73
2020/12/03 05:26:41;;;;;;;25.45;12.50;;;5.90;70.10;;;;;;2350007;53;21003;-73
2020/12/03 05:29:08;;;;;;;24.48;12.68;;;5.90;70.30;;;;;;2326281;53;21064;-73
2020/12/03 05:31:45;;;;;;;27.35;14.25;;;5.90;70.40;;;;;;2350481;53;21047;-73
2020/12/03 05:34:19;;;;;;;26.05;13.35;;;5.90;70.40;;;;;;2590681;52;20983;-73
2020/12/03 05:37:00;;;;;;;24.70;12.95;;;5.90;70.40;;;;;;2346630;53;21471;-73
2020/12/03 05:39:35;;;;;;;26.17;13.15;;;5.90;70.20;;;;;;2589982;53;21079;-73
2020/12/03 05:42:06;;;;;;;23.95;12.30;;;5.90;70.30;;;;;;2582945;53;20926;-73
2020/12/03 05:44:41;;;;;;;24.52;12.10;;;5.90;70.30;;;;;;2562144;53;20988;-73
2020/12/03 05:47:31;;;;;;;27.73;13.68;;;5.90;70.30;;;;;;2554935;53;20941;-73
2020/12/03 05:50:10;;;;;;;26.48;13.27;;;5.90;70.10;;;;;;2575991;53;20958;-72
2020/12/03 05:52:37;;;;;;;22.58;11.52;;;5.90;70.30;;;;;;2561170;53;20941;-73
2020/12/03 05:55:23;;;;;;;25.48;12.80;;;5.90;70.30;;;;;;2590435;53;20982;-73
2020/12/03 05:57:49;;;;;;;32.03;15.35;;;5.90;70.20;;;;;;2577716;53;20917;-73
2020/12/03 06:00:25;;;;;;;40.80;20.08;;;5.90;70.30;;;;;;2588410;53;20940;-73
2020/12/03 06:03:24;;;;;;;29.20;13.88;;;5.90;70.10;;;;;;2587266;53;20956;-73
2020/12/03 06:10:22;;;;;;;29.65;15.05;;;5.90;70.80;;;;;;2590141;53;21009;-73
2020/12/03 06:16:30;;;;;;;36.50;16.23;;;5.90;69.70;;;;;;2342597;53;21043;-73
2020/12/03 06:19:36;;;;;;;23.98;10.85;;;6.00;70.20;;;;;;2589316;53;21020;-73
2020/12/03 06:22:15;;;;;;;22.70;11.12;;;6.00;69.90;;;;;;2346885;53;21210;-73
2020/12/03 06:25:16;;;;;;;21.98;10.55;;;5.90;70.10;;;;;;2562801;53;20988;-73
2020/12/03 06:28:13;;;;;;;20.58;10.85;;;5.90;70.00;;;;;;2327693;54;20989;-73
2020/12/03 06:31:02;;;;;;;18.92;10.02;;;5.90;70.00;;;;;;2537799;53;20996;-73
2020/12/03 06:33:55;;;;;;;21.27;11.18;;;6.00;70.00;;;;;;2343651;53;20960;-73
2020/12/03 06:36:40;;;;;;;20.70;11.32;;;6.00;69.90;;;;;;2345888;53;21032;-73
2020/12/03 06:40:09;;;;;;;20.67;10.75;;;6.00;70.00;;;;;;2588312;53;20929;-73
2020/12/03 06:43:42;;;;;;;21.23;11.20;;;6.00;70.10;;;;;;2589466;53;20996;-72
2020/12/03 06:47:55;;;;;;;21.48;10.68;;;6.00;70.30;;;;;;2589804;53;20981;-73
2020/12/03 06:54:06;;;;;;;21.75;11.25;;;6.00;70.10;;;;;;2589673;53;21023;-73
2020/12/03 07:01:17;;;;;;;21.48;11.65;;;6.00;70.00;;;;;;2347336;53;20965;-73
2020/12/03 07:04:28;;;;;;;21.08;10.15;;;6.00;69.20;;;;;;2562066;53;21827;-73
2020/12/03 07:13:59;;;;;;;19.33;9.23;;;6.00;69.70;;;;;;2346554;53;20947;-73
2020/12/03 07:17:07;;;;;;;20.48;10.15;;;6.00;69.50;;;;;;2590174;53;20980;-73
2020/12/03 07:23:17;;;;;;;17.17;9.18;;;6.00;70.00;;;;;;2342951;53;20936;-73
2020/12/03 07:25:45;;;;;;;21.55;8.98;;;6.00;70.10;;;;;;2589831;53;20995;-73
2020/12/03 07:28:53;;;;;;;18.67;9.35;;;6.00;70.30;;;;;;2337367;53;21281;-73
2020/12/03 07:31:27;;;;;;;18.15;9.77;;;6.00;69.80;;;;;;2349345;53;21088;-73
2020/12/03 07:35:05;;;;;;;23.08;12.27;;;6.00;70.40;;;;;;2344040;53;21032;-73
2020/12/03 07:37:52;;;;;;;22.00;10.52;;;6.00;70.30;;;;;;2346283;53;20980;-73
2020/12/03 07:40:19;;;;;;;18.10;9.70;;;6.10;70.20;;;;;;2561481;53;20956;-73
2020/12/03 07:42:46;;;;;;;16.37;8.88;;;6.10;70.60;;;;;;2589101;53;20984;-73
2020/12/03 07:45:43;;;;;;;17.90;8.93;;;6.10;70.60;;;;;;2590407;53;20967;-73
2020/12/03 07:48:24;;;;;;;19.23;10.30;;;6.10;70.20;;;;;;2343455;53;20944;-73
2020/12/03 07:52:16;;;;;;;16.87;8.93;;;6.20;70.50;;;;;;2562807;53;21033;-73
2020/12/03 07:54:45;;;;;;;14.32;8.27;;;6.20;70.00;;;;;;2347468;53;21813;-73
2020/12/03 08:05:01;;;;;;;18.23;9.25;;;6.20;70.70;;;;;;2342947;53;20928;-73
2020/12/03 08:07:27;;;;;;;16.83;8.40;;;6.30;69.70;;;;;;2589271;53;21016;-73
2020/12/03 08:09:54;;;;;;;19.42;10.30;;;6.30;70.50;;;;;;2343247;53;21718;-73
2020/12/03 08:12:22;;;;;;;15.27;8.20;;;6.30;70.50;;;;;;2588391;53;21390;-73
2020/12/03 08:14:53;;;;;;;15.93;8.88;;;6.30;70.50;;;;;;2584383;53;20929;-73
2020/12/03 08:18:00;;;;;;;17.37;8.90;;;6.30;70.50;;;;;;2343847;53;20905;-73
2020/12/03 08:20:42;;;;;;;17.40;8.65;;;6.30;70.20;;;;;;2341861;53;20952;-73
2020/12/03 08:23:11;;;;;;;14.18;7.65;;;6.30;70.40;;;;;;2343174;53;21897;-73
2020/12/03 08:25:42;;;;;;;14.25;7.62;;;6.30;70.80;;;;;;2343110;53;20960;-73
2020/12/03 08:28:09;;;;;;;15.43;8.37;;;6.50;70.90;;;;;;2343111;53;20951;-73
2020/12/03 08:31:15;;;;;;;13.82;7.60;;;6.40;70.80;;;;;;2333312;53;21744;-73
2020/12/03 08:33:42;;;;;;;15.93;8.75;;;6.50;70.60;;;;;;2344928;53;21052;-74
2020/12/03 08:36:09;;;;;;;17.77;9.07;;;6.50;70.90;;;;;;2342790;53;21385;-73
2020/12/03 08:38:41;;;;;;;14.95;8.60;;;6.50;70.80;;;;;;2589563;53;21020;-73
2020/12/03 08:41:18;;;;;;;16.17;9.13;;;6.50;70.90;;;;;;2582420;53;21112;-73
2020/12/03 08:43:49;;;;;;;18.87;10.32;;;6.50;70.50;;;;;;2589541;53;20980;-73
2020/12/03 08:46:24;;;;;;;16.60;9.20;;;6.50;70.70;;;;;;2342935;53;20975;-73
2020/12/03 08:48:50;;;;;;;13.70;7.97;;;6.60;70.80;;;;;;2588863;53;21083;-73
2020/12/03 08:51:18;;;;;;;14.45;7.87;;;6.60;70.80;;;;;;2346151;53;20984;-73
2020/12/03 08:53:48;;;;;;;13.02;7.10;;;6.60;70.70;;;;;;2588506;53;21028;-73
2020/12/03 08:56:38;;;;;;;15.00;8.57;;;6.60;70.70;;;;;;2340430;53;21052;-73
2020/12/03 08:59:18;;;;;;;12.88;7.05;;;6.60;70.20;;;;;;2341920;53;20944;-73
2020/12/03 09:01:49;;;;;;;16.70;8.00;;;6.70;70.30;;;;;;2582579;53;21001;-73
2020/12/03 09:04:26;;;;;;;15.55;6.78;;;6.70;70.50;;;;;;2337390;53;20943;-73
2020/12/03 09:06:52;;;;;;;14.18;7.37;;;6.70;70.60;;;;;;2337820;53;20916;-73
2020/12/03 09:09:20;;;;;;;14.30;7.45;;;6.80;70.80;;;;;;2347277;53;21785;-73
2020/12/03 09:11:46;;;;;;;13.27;6.97;;;6.80;70.70;;;;;;2342266;53;20932;-73
2020/12/03 09:14:13;;;;;;;14.38;7.30;;;6.80;70.70;;;;;;2577982;53;20980;-73
2020/12/03 09:16:40;;;;;;;11.75;6.30;;;6.80;70.80;;;;;;2351130;53;21029;-73
2020/12/03 09:19:06;;;;;;;11.98;6.97;;;6.90;70.80;;;;;;2581658;53;21544;-73
2020/12/03 09:21:36;;;;;;;10.38;5.75;;;6.90;70.80;;;;;;2330578;54;20952;-73
2020/12/03 09:24:04;;;;;;;9.50;5.82;;;6.90;70.80;;;;;;2322598;55;20995;-73
2020/12/03 09:26:32;;;;;;;10.52;6.15;;;6.90;70.80;;;;;;2586170;53;21017;-73
2020/12/03 09:29:04;;;;;;;11.80;6.53;;;7.00;70.90;;;;;;2343409;53;20988;-73
2020/12/03 09:31:32;;;;;;;10.60;6.00;;;7.00;70.50;;;;;;2343378;53;20944;-73
2020/12/03 09:33:58;;;;;;;11.75;6.22;;;7.00;70.70;;;;;;2589546;52;20952;-73
2020/12/03 09:36:25;;;;;;;13.10;7.55;;;7.10;70.90;;;;;;2343860;53;20953;-73
2020/12/03 09:38:51;;;;;;;12.65;7.10;;;7.10;70.50;;;;;;2589207;53;21575;-74
2020/12/03 09:41:21;;;;;;;10.63;6.32;;;7.10;70.70;;;;;;2586879;53;21077;-74
2020/12/03 09:43:49;;;;;;;11.88;6.30;;;7.20;70.70;;;;;;2564061;53;21818;-73
2020/12/03 09:46:24;;;;;;;11.27;6.10;;;7.20;70.70;;;;;;2342491;53;20921;-73
2020/12/03 09:48:57;;;;;;;10.07;6.07;;;7.30;70.70;;;;;;2589483;53;20964;-73
2020/12/03 09:51:24;;;;;;;9.10;5.35;;;7.30;70.70;;;;;;2589361;53;20948;-73
2020/12/03 09:53:53;;;;;;;11.50;6.10;;;7.30;70.80;;;;;;2339680;53;20940;-73
2020/12/03 09:56:20;;;;;;;11.40;6.65;;;7.40;70.70;;;;;;2338548;53;20992;-73
2020/12/03 09:58:49;;;;;;;13.27;7.93;;;7.40;70.50;;;;;;2576895;53;20957;-73
2020/12/03 10:01:16;;;;;;;10.20;6.15;;;7.40;70.30;;;;;;2343917;53;21039;-73
2020/12/03 10:04:01;;;;;;;11.32;6.03;;;7.40;70.40;;;;;;2316125;53;20992;-73
2020/12/03 10:09:45;;;;;;;9.57;5.72;;;7.40;70.10;;;;;;2589757;53;21029;-73
2020/12/03 10:19:37;;;;;;;13.00;6.70;;;7.50;68.90;;;;;;2316708;53;21418;-74
2020/12/03 10:22:05;;;;;;;9.38;5.07;;;7.50;69.40;;;;;;2584807;53;21020;-73
2020/12/03 10:24:48;;;;;;;9.15;4.65;;;7.60;70.00;;;;;;2337107;53;20972;-73
2020/12/03 10:27:40;;;;;;;10.45;5.47;;;7.60;69.80;;;;;;2343387;53;21796;-73
2020/12/03 10:30:12;;;;;;;8.48;4.37;;;7.60;69.30;;;;;;2590078;53;20948;-73
2020/12/03 10:32:44;;;;;;;9.27;4.87;;;7.60;70.70;;;;;;2323794;54;20981;-73
2020/12/03 10:35:10;;;;;;;8.88;5.07;;;7.60;70.10;;;;;;2314433;53;21479;-72
2020/12/03 10:37:43;;;;;;;9.10;5.22;;;7.60;70.20;;;;;;2312878;53;21761;-73
2020/12/03 10:40:18;;;;;;;8.18;4.35;;;7.70;70.00;;;;;;2315434;54;21498;-73
2020/12/03 10:42:50;;;;;;;8.18;4.60;;;7.70;69.60;;;;;;2529097;53;21060;-73
2020/12/03 10:45:21;;;;;;;;;;;7.70;69.90;;;;;;2574558;53;20985;-73
2020/12/03 10:47:51;;;;;;;6.87;4.05;;;7.70;68.70;;;;;;2349955;53;20071;-73
2020/12/03 10:50:18;;;;;;;6.65;3.85;;;7.70;69.80;;;;;;2335987;54;21162;-73
2020/12/03 10:52:46;;;;;;;11.85;5.05;;;7.70;69.90;;;;;;2342511;53;20984;-73
2020/12/03 10:55:17;;;;;;;13.85;6.70;;;7.70;69.80;;;;;;2583246;53;21002;-73
2020/12/03 10:57:51;;;;;;;8.90;4.62;;;7.70;69.70;;;;;;2339589;53;20948;-73
2020/12/03 11:00:19;;;;;;;8.52;4.50;;;7.80;69.80;;;;;;2541987;53;21503;-73
2020/12/03 11:02:46;;;;;;;7.30;4.30;;;7.80;69.80;;;;;;2337413;53;20991;-73
2020/12/03 11:05:12;;;;;;;9.60;5.03;;;7.80;70.00;;;;;;2340806;53;20916;-73
2020/12/03 11:07:39;;;;;;;8.88;5.15;;;7.80;70.00;;;;;;2583538;53;20968;-73
2020/12/03 11:10:05;;;;;;;7.70;4.43;;;7.80;69.80;;;;;;2569606;53;21477;-73
2020/12/03 11:12:31;;;;;;;8.07;4.70;;;7.90;70.00;;;;;;2581638;53;21445;-73
2020/12/03 11:15:02;;;;;;;7.78;4.53;;;7.90;70.10;;;;;;2583453;53;20994;-73
2020/12/03 11:17:47;;;;;;;8.38;4.55;;;7.90;70.00;;;;;;2337049;55;20939;-73
2020/12/03 11:20:43;;;;;;;9.27;4.40;;;8.00;69.80;;;;;;2583261;53;21159;-73
2020/12/03 11:23:21;;;;;;;11.77;4.90;;;8.00;70.50;;;;;;2336543;53;21483;-73
2020/12/03 11:25:47;;;;;;;10.27;5.15;;;8.10;70.40;;;;;;2583405;53;20921;-73
2020/12/03 11:29:36;;;;;;;7.57;3.90;;;8.10;70.70;;;;;;2337193;53;20934;-73
2020/12/03 11:32:03;;;;;;;7.57;3.95;;;8.20;69.10;;;;;;2337431;55;20908;-73
2020/12/03 11:34:39;;;;;;;6.55;3.55;;;8.30;70.60;;;;;;2582761;53;20987;-74
2020/12/03 11:37:05;;;;;;;7.28;4.40;;;8.30;70.50;;;;;;2583437;53;21397;-73
2020/12/03 11:39:33;;;;;;;7.32;4.47;;;8.40;70.80;;;;;;2336794;55;21010;-73
2020/12/03 11:42:25;;;;;;;6.82;4.25;;;8.40;70.50;;;;;;2581741;53;20939;-73
2020/12/03 11:50:25;;;;;;;7.12;3.67;;;8.60;70.30;;;;;;2552728;53;21593;-73
2020/12/03 11:52:59;;;;;;;7.37;3.72;;;8.60;70.60;;;;;;2543646;54;21080;-73
2020/12/03 11:55:25;;;;;;;8.55;4.47;;;8.60;70.20;;;;;;2583615;53;21480;-73
2020/12/03 11:57:51;;;;;;;8.00;3.97;;;8.70;70.30;;;;;;2322726;54;21036;-74
2020/12/03 12:00:23;;;;;;;6.93;4.18;;;8.70;70.30;;;;;;2324872;53;20965;-73
2020/12/03 12:02:49;;;;;;;9.57;5.37;;;8.80;70.20;;;;;;2336934;53;20903;-73
2020/12/03 12:10:15;;;;;;;9.13;5.07;;;8.90;69.80;;;;;;2581805;53;21013;-73
2020/12/03 12:12:42;;;;;;;7.55;4.28;;;8.90;69.70;;;;;;2580271;53;21024;-73
2020/12/03 12:15:11;;;;;;;7.30;4.12;;;9.00;70.20;;;;;;2337414;53;21721;-73
2020/12/03 12:17:38;;;;;;;6.05;3.05;;;9.00;70.00;;;;;;2582882;53;20971;-73
2020/12/03 12:20:08;;;;;;;6.82;4.22;;;9.10;70.50;;;;;;2337878;53;21031;-73
2020/12/03 12:22:35;;;;;;;7.22;4.18;;;9.20;70.90;;;;;;2337195;55;20935;-73
2020/12/03 12:25:02;;;;;;;6.10;3.72;;;9.30;71.40;;;;;;2341812;53;21039;-73
2020/12/03 12:27:30;;;;;;;7.28;3.75;;;9.40;71.50;;;;;;2345969;53;20982;-73
2020/12/03 12:29:57;;;;;;;5.03;3.17;;;9.60;71.10;;;;;;2335276;53;20908;-73
2020/12/03 12:32:25;;;;;;;7.50;3.92;;;9.60;70.50;;;;;;2582217;53;20958;-73
2020/12/03 12:34:51;;;;;;;5.68;3.50;;;9.70;70.40;;;;;;2583826;53;21004;-73
2020/12/03 12:37:18;;;;;;;6.87;4.03;;;9.80;70.70;;;;;;2341713;53;20969;-73
2020/12/03 12:39:44;;;;;;;5.68;3.40;;;9.90;70.70;;;;;;2337434;55;20952;-74
2020/12/03 12:42:11;;;;;;;5.90;4.05;;;10.00;69.70;;;;;;2582751;53;21475;-73
2020/12/03 12:44:38;;;;;;;6.28;3.25;;;10.10;69.60;;;;;;2338161;53;21041;-73
2020/12/03 12:47:05;;;;;;;5.50;3.33;;;10.30;69.70;;;;;;2582236;53;21043;-73
2020/12/03 12:49:32;;;;;;;5.57;3.35;;;10.50;70.00;;;;;;2340097;53;20984;-73
2020/12/03 12:51:58;;;;;;;7.15;3.30;;;10.60;69.20;;;;;;2577390;53;20968;-73
2020/12/03 12:54:24;;;;;;;5.37;3.28;;;10.70;68.80;;;;;;2583021;53;24806;-73
2020/12/03 12:56:53;;;;;;;4.37;2.70;;;10.80;67.70;;;;;;2583964;53;20927;-73
2020/12/03 12:59:25;;;;;;;5.37;2.95;;;10.90;67.20;;;;;;2574609;53;21853;-73
2020/12/03 13:01:51;;;;;;;;;;;10.80;66.10;;;;;;2342801;53;20941;-73
2020/12/03 13:04:18;;;;;;;3.92;2.25;;;10.80;64.40;;;;;;2583603;53;20127;-73
2020/12/03 13:06:45;;;;;;;5.57;2.60;;;10.80;66.40;;;;;;2582974;53;20923;-73
2020/12/03 13:09:11;;;;;;;4.68;2.42;;;10.80;67.20;;;;;;2584083;53;20883;-73
2020/12/03 13:11:38;;;;;;;4.07;2.28;;;10.90;67.30;;;;;;2583536;53;20998;-73
2020/12/03 13:14:09;;;;;;;4.50;2.50;;;10.90;67.10;;;;;;2562527;53;21009;-73
2020/12/03 13:16:36;;;;;;;4.25;2.33;;;11.00;67.50;;;;;;2582144;53;20985;-73
2020/12/03 13:19:04;;;;;;;4.20;2.45;;;11.10;67.60;;;;;;2544594;54;20996;-73
2020/12/03 13:21:31;;;;;;;3.90;2.03;;;11.20;67.00;;;;;;2340674;53;21023;-73
2020/12/03 13:23:58;;;;;;;4.03;2.03;;;11.30;66.40;;;;;;2332652;53;21418;-74
2020/12/03 13:26:25;;;;;;;4.15;2.30;;;11.30;66.60;;;;;;2581465;53;21025;-73
2020/12/03 13:28:52;;;;;;;3.67;2.12;;;11.30;65.70;;;;;;2337825;55;20985;-73
2020/12/03 13:31:18;;;;;;;3.45;1.85;;;11.40;65.20;;;;;;2583392;53;20905;-73
2020/12/03 13:33:46;;;;;;;3.35;1.67;;;11.30;64.70;;;;;;2338258;53;21000;-73
2020/12/03 13:36:13;;;;;;;3.12;1.67;;;11.30;64.80;;;;;;2582450;53;20978;-73
2020/12/03 13:38:43;;;;;;;4.53;2.05;;;11.20;63.70;;;;;;2337157;53;20919;-73
2020/12/03 13:41:09;;;;;;;3.25;1.85;;;11.20;62.70;;;;;;2583592;53;21016;-73
2020/12/03 13:43:39;;;;;;;3.80;2.10;;;11.10;62.30;;;;;;2325819;53;21015;-73
2020/12/03 13:46:07;;;;;;;3.03;1.60;;;11.00;62.90;;;;;;2338678;53;21006;-73
2020/12/03 13:48:34;;;;;;;3.83;1.77;;;10.90;63.90;;;;;;2339817;53;21044;-73
2020/12/03 13:51:00;;;;;;;3.53;1.90;;;10.90;64.90;;;;;;2568656;53;20959;-73
2020/12/03 13:53:29;;;;;;;3.42;1.70;;;10.90;65.50;;;;;;2345165;53;20958;-73
2020/12/03 13:55:56;;;;;;;3.58;1.60;;;11.00;65.60;;;;;;2326207;53;21416;-73
2020/12/03 13:58:22;;;;;;;4.37;1.92;;;10.90;65.20;;;;;;2582952;53;20911;-73
2020/12/03 14:00:48;;;;;;;3.08;1.35;;;10.90;65.20;;;;;;2581630;53;21528;-73
2020/12/03 14:03:16;;;;;;;3.90;1.80;;;10.90;65.20;;;;;;2335954;53;20951;-73
2020/12/03 14:05:43;;;;;;;3.37;1.73;;;10.90;65.50;;;;;;2583122;53;21769;-73
2020/12/03 14:08:09;;;;;;;3.53;1.48;;;10.90;65.20;;;;;;2338830;53;20945;-73
2020/12/03 14:10:37;;;;;;;3.30;1.50;;;10.80;65.00;;;;;;2336619;55;20958;-73
2020/12/03 14:13:04;;;;;;;2.83;1.48;;;10.80;65.00;;;;;;2584225;53;21042;-73
2020/12/03 14:15:30;;;;;;;3.90;1.42;;;10.80;64.90;;;;;;2576490;53;20909;-73
2020/12/03 14:17:58;;;;;;;3.28;1.45;;;10.70;64.60;;;;;;2341193;53;20984;-73
2020/12/03 14:20:24;;;;;;;2.50;1.23;;;10.70;64.70;;;;;;2582544;53;20943;-73